createdAt,value
2022-11-22T00:01:26.564Z,8.39
2022-11-22T00:03:57.151Z,7.19
2022-11-22T00:06:27.872Z,6.68
2022-11-22T00:08:58.353Z,7.63
2022-11-22T00:11:29.054Z,8.60
2022-11-22T00:13:59.622Z,8.91
2022-11-22T00:16:30.467Z,8.97
2022-11-22T00:19:01.391Z,9.28
2022-11-22T00:21:32.088Z,9.33
2022-11-22T00:24:02.774Z,8.12
2022-11-22T00:26:33.546Z,7.15
2022-11-22T00:29:04.936Z,7.79
2022-11-22T00:31:35.747Z,8.68
2022-11-22T00:34:06.670Z,9.09
2022-11-22T00:36:37.454Z,9.37
2022-11-22T00:39:08.936Z,9.34
2022-11-22T00:41:40.615Z,8.16
2022-11-22T00:44:11.291Z,7.09
2022-11-22T00:46:42.118Z,7.43
2022-11-22T00:49:12.751Z,8.37
2022-11-22T00:51:43.496Z,8.96
2022-11-22T00:54:14.091Z,9.22
2022-11-22T00:56:44.641Z,9.36
2022-11-22T00:59:15.282Z,8.42
2022-11-22T01:01:46.041Z,7.12
2022-11-22T01:04:16.990Z,7.43
2022-11-22T01:06:47.770Z,8.15
2022-11-22T01:09:19.951Z,8.62
2022-11-22T01:11:51.068Z,8.85
2022-11-22T01:14:21.730Z,9.05
2022-11-22T01:16:52.520Z,8.87
2022-11-22T01:19:23.107Z,7.48
2022-11-22T01:21:53.852Z,6.44
2022-11-22T01:24:24.425Z,7.05
2022-11-22T01:26:55.053Z,7.88
2022-11-22T01:29:25.559Z,8.40
2022-11-22T01:31:56.318Z,8.67
2022-11-22T01:34:27.075Z,8.61
2022-11-22T01:36:57.572Z,7.29
2022-11-22T01:39:28.464Z,6.12
2022-11-22T01:41:59.335Z,6.62
2022-11-22T01:44:30.934Z,7.47
2022-11-22T01:47:02.532Z,8.13
2022-11-22T01:49:35.269Z,8.47
2022-11-22T01:52:09.025Z,8.40
2022-11-22T01:54:41.751Z,7.14
2022-11-22T01:57:15.041Z,5.87
2022-11-22T01:59:49.061Z,5.37
2022-11-22T02:02:19.913Z,6.44
2022-11-22T02:04:51.999Z,7.45
2022-11-22T02:07:24.198Z,7.89
2022-11-22T02:09:54.950Z,8.25
2022-11-22T02:12:27.733Z,8.54
2022-11-22T02:14:59.500Z,7.83
2022-11-22T02:17:30.481Z,6.46
2022-11-22T02:20:00.961Z,5.37
2022-11-22T02:22:33.338Z,4.93
2022-11-22T02:25:09.295Z,5.98
2022-11-22T02:27:40.464Z,7.07
2022-11-22T02:30:11.744Z,7.72
2022-11-22T02:32:42.447Z,8.19
2022-11-22T02:35:19.427Z,8.06
2022-11-22T02:37:51.697Z,6.60
2022-11-22T02:40:22.602Z,5.33
2022-11-22T02:42:56.800Z,4.86
2022-11-22T02:45:27.336Z,5.96
2022-11-22T02:48:07.097Z,7.04
2022-11-22T02:50:38.087Z,7.59
2022-11-22T02:53:09.673Z,7.97
2022-11-22T02:55:40.403Z,7.94
2022-11-22T02:58:11.285Z,6.65
2022-11-22T03:00:41.829Z,5.37
2022-11-22T03:03:12.732Z,4.64
2022-11-22T03:05:43.131Z,5.47
2022-11-22T03:08:14.172Z,6.43
2022-11-22T03:10:44.492Z,6.94
2022-11-22T03:13:15.841Z,7.26
2022-11-22T03:15:48.425Z,7.50
2022-11-22T03:18:19.246Z,7.64
2022-11-22T03:20:49.785Z,7.84
2022-11-22T03:23:20.824Z,8.15
2022-11-22T03:25:51.156Z,8.45
2022-11-22T03:28:21.993Z,8.37
2022-11-22T03:30:52.423Z,6.97
2022-11-22T03:33:23.166Z,5.89
2022-11-22T03:35:56.115Z,6.26
2022-11-22T03:38:27.337Z,7.03
2022-11-22T03:40:57.809Z,7.48
2022-11-22T03:43:28.539Z,7.79
2022-11-22T03:45:58.814Z,8.09
2022-11-22T03:48:29.630Z,8.06
2022-11-22T03:51:05.873Z,6.72
2022-11-22T03:53:36.826Z,5.27
2022-11-22T03:56:07.387Z,4.66
2022-11-22T03:58:38.057Z,5.55
2022-11-22T04:01:12.084Z,6.63
2022-11-22T04:03:47.239Z,7.11
2022-11-22T04:06:17.844Z,7.36
2022-11-22T04:08:49.013Z,7.61
2022-11-22T04:11:19.305Z,7.96
2022-11-22T04:14:07.551Z,8.18
2022-11-22T04:16:37.938Z,8.25
2022-11-22T04:19:09.109Z,8.46
2022-11-22T04:21:39.739Z,8.30
2022-11-22T04:24:29.622Z,7.06
2022-11-22T04:27:00.044Z,5.63
2022-11-22T04:29:31.306Z,4.99
2022-11-22T04:32:19.395Z,5.90
2022-11-22T04:34:50.614Z,7.00
2022-11-22T04:37:21.145Z,7.42
2022-11-22T04:39:51.837Z,7.54
2022-11-22T04:42:39.676Z,7.84
2022-11-22T04:45:11.343Z,8.17
2022-11-22T04:47:59.056Z,8.32
2022-11-22T04:50:48.221Z,8.48
2022-11-22T04:53:19.103Z,8.38
2022-11-22T04:56:07.338Z,6.97
2022-11-22T04:58:37.724Z,5.81
2022-11-22T05:01:09.140Z,5.21
2022-11-22T05:03:39.804Z,6.13
2022-11-22T05:06:14.670Z,7.14
2022-11-22T05:08:45.015Z,7.76
2022-11-22T05:11:15.901Z,8.14
2022-11-22T05:13:46.178Z,8.19
2022-11-22T05:16:17.673Z,6.97
2022-11-22T05:18:59.381Z,5.59
2022-11-22T05:21:30.969Z,4.90
2022-11-22T05:24:01.348Z,5.95
2022-11-22T05:26:33.152Z,6.91
2022-11-22T05:29:05.893Z,7.30
2022-11-22T05:31:37.826Z,7.56
2022-11-22T05:34:08.803Z,7.81
2022-11-22T05:36:39.447Z,8.00
2022-11-22T05:39:09.832Z,8.04
2022-11-22T05:41:56.183Z,8.33
2022-11-22T05:44:26.670Z,8.05
2022-11-22T05:46:57.854Z,6.72
2022-11-22T05:49:28.576Z,5.62
2022-11-22T05:51:59.678Z,6.21
2022-11-22T05:54:30.206Z,7.13
2022-11-22T05:57:01.604Z,7.68
2022-11-22T05:59:32.109Z,7.63
2022-11-22T06:02:04.655Z,7.72
2022-11-22T06:04:35.459Z,7.84
2022-11-22T06:07:10.247Z,7.98
2022-11-22T06:09:40.850Z,8.19
2022-11-22T06:12:11.795Z,8.34
2022-11-22T06:14:43.618Z,7.77
2022-11-22T06:17:14.896Z,6.25
2022-11-22T06:19:45.443Z,5.36
2022-11-22T06:22:16.490Z,6.09
2022-11-22T06:24:47.098Z,6.69
2022-11-22T06:27:17.999Z,6.90
2022-11-22T06:29:48.305Z,7.16
2022-11-22T06:32:19.336Z,7.52
2022-11-22T06:34:49.727Z,7.61
2022-11-22T06:37:20.523Z,7.48
2022-11-22T06:39:50.884Z,7.53
2022-11-22T06:42:21.931Z,7.64
2022-11-22T06:44:52.349Z,7.72
2022-11-22T06:47:23.081Z,7.77
2022-11-22T06:49:53.718Z,6.71
2022-11-22T06:52:24.669Z,5.44
2022-11-22T06:54:55.081Z,5.35
2022-11-22T06:57:26.012Z,6.13
2022-11-22T06:59:56.361Z,6.82
2022-11-22T07:02:27.598Z,7.34
2022-11-22T07:05:23.783Z,7.39
2022-11-22T07:07:49.088Z,7.72
2022-11-22T07:10:19.547Z,7.80
2022-11-22T07:12:50.080Z,8.16
2022-11-22T07:15:20.399Z,8.05
2022-11-22T07:17:51.340Z,6.75
2022-11-22T07:20:21.866Z,5.55
2022-11-22T07:22:52.394Z,5.48
2022-11-22T07:25:22.974Z,6.45
2022-11-22T07:27:54.475Z,7.11
2022-11-22T07:30:25.101Z,7.56
2022-11-22T07:32:56.146Z,7.80
2022-11-22T07:35:26.734Z,8.06
2022-11-22T07:37:57.204Z,7.85
2022-11-22T07:40:27.980Z,6.56
2022-11-22T07:42:58.916Z,5.49
2022-11-22T07:45:29.504Z,5.88
2022-11-22T07:48:01.915Z,6.58
2022-11-22T07:50:32.505Z,7.34
2022-11-22T07:53:03.143Z,7.95
2022-11-22T07:55:34.071Z,8.13
2022-11-22T07:58:05.733Z,7.19
2022-11-22T08:00:36.323Z,5.72
2022-11-22T08:03:08.320Z,5.05
2022-11-22T08:05:38.908Z,5.89
2022-11-22T08:08:09.628Z,6.77
2022-11-22T08:10:40.417Z,7.38
2022-11-22T08:13:10.947Z,7.84
2022-11-22T08:15:41.407Z,8.03
2022-11-22T08:18:12.112Z,8.24
2022-11-22T08:20:42.736Z,8.54
2022-11-22T08:23:13.376Z,8.53
2022-11-22T08:25:44.107Z,7.27
2022-11-22T08:28:14.625Z,6.11
2022-11-22T08:30:45.246Z,5.61
2022-11-22T08:33:15.831Z,6.58
2022-11-22T08:35:50.236Z,7.66
2022-11-22T08:38:20.841Z,8.40
2022-11-22T08:40:52.183Z,8.98
2022-11-22T08:43:22.825Z,9.36
2022-11-22T08:45:57.140Z,8.65
2022-11-22T08:48:27.988Z,7.33
2022-11-22T08:50:59.688Z,6.38
2022-11-22T08:53:31.798Z,5.97
2022-11-22T08:56:02.538Z,6.94
2022-11-22T08:58:33.754Z,7.96
2022-11-22T09:01:07.085Z,8.61
2022-11-22T09:03:36.213Z,9.06
2022-11-22T09:09:22.170Z,9.70
2022-11-22T09:11:49.948Z,9.61
2022-11-22T09:14:20.465Z,8.50
2022-11-22T09:16:50.962Z,7.43
2022-11-22T09:19:21.492Z,6.87
2022-11-22T09:21:51.941Z,7.76
2022-11-22T09:24:23.083Z,8.78
2022-11-22T09:26:53.349Z,9.49
2022-11-22T09:29:25.535Z,9.85
2022-11-22T09:31:57.355Z,10.14
2022-11-22T09:34:28.006Z,10.11
2022-11-22T09:36:58.335Z,9.02
2022-11-22T09:39:29.186Z,8.14
2022-11-22T09:42:10.579Z,8.81
2022-11-22T09:44:46.725Z,9.71
2022-11-22T09:47:22.651Z,10.28
2022-11-22T09:49:58.281Z,10.41
2022-11-22T09:52:33.402Z,9.33
2022-11-22T09:55:06.190Z,8.66
2022-11-22T09:57:40.397Z,9.44
2022-11-22T10:00:18.997Z,10.14
2022-11-22T10:03:00.931Z,10.59
2022-11-22T10:19:55.292Z,9.28
2022-11-22T10:22:29.010Z,8.50
2022-11-22T10:25:00.242Z,9.26
2022-11-22T10:27:32.612Z,10.16
2022-11-22T10:30:05.707Z,10.52
2022-11-22T10:32:39.143Z,9.63
2022-11-22T10:35:08.182Z,8.66
2022-11-22T10:37:42.607Z,8.65
2022-11-22T10:40:17.875Z,9.81
2022-11-22T10:43:09.102Z,10.52
2022-11-22T10:45:42.523Z,10.01
2022-11-22T10:48:11.543Z,9.00
2022-11-22T10:50:50.630Z,8.87
2022-11-22T10:53:32.220Z,9.85
2022-11-22T10:56:06.272Z,10.36
2022-11-22T10:58:41.494Z,10.22
2022-11-22T11:01:19.321Z,9.44
2022-11-22T11:03:53.120Z,8.78
2022-11-22T11:06:43.701Z,9.30
2022-11-22T11:12:16.859Z,10.67
2022-11-22T11:14:48.546Z,9.79
2022-11-22T11:17:20.193Z,9.06
2022-11-22T11:19:51.318Z,9.29
2022-11-22T11:22:50.380Z,10.42
2022-11-22T11:25:31.356Z,10.76
2022-11-22T11:28:04.297Z,9.77
2022-11-22T11:30:42.969Z,9.07
2022-11-22T11:33:30.481Z,9.33
2022-11-22T11:36:07.093Z,10.46
2022-11-22T11:38:38.913Z,10.65
2022-11-22T11:41:19.435Z,9.89
2022-11-22T11:43:50.516Z,9.07
2022-11-22T11:46:21.669Z,9.36
2022-11-22T11:48:53.215Z,10.42
2022-11-22T11:51:25.885Z,10.94
2022-11-22T11:53:58.928Z,10.09
2022-11-22T11:56:40.200Z,9.32
2022-11-22T11:59:14.030Z,8.97
2022-11-22T12:01:52.217Z,10.04
2022-11-22T12:04:24.747Z,10.60
2022-11-22T12:07:01.656Z,9.87
2022-11-22T12:09:35.643Z,8.99
2022-11-22T12:12:17.952Z,8.90
2022-11-22T12:17:47.876Z,10.63
2022-11-22T12:20:22.152Z,9.91
2022-11-22T12:22:58.536Z,9.10
2022-11-22T12:25:33.142Z,8.85
2022-11-22T12:28:11.204Z,10.00
2022-11-22T12:30:43.753Z,11.02
2022-11-22T12:33:18.901Z,10.65
2022-11-22T12:35:50.440Z,9.81
2022-11-22T12:38:23.995Z,9.12
2022-11-22T12:40:56.622Z,8.66
2022-11-22T12:43:28.396Z,9.32
2022-11-22T12:46:00.751Z,10.33
2022-11-22T12:48:23.573Z,10.08
2022-11-22T12:48:34.115Z,10.32
2022-11-22T12:51:09.069Z,9.53
2022-11-22T12:53:41.189Z,8.83
2022-11-22T12:56:17.169Z,8.98
2022-11-22T12:58:50.416Z,10.16
2022-11-22T13:01:19.534Z,10.87
2022-11-22T13:03:54.731Z,10.14
2022-11-22T13:06:26.587Z,9.35
2022-11-22T13:09:03.784Z,8.91
2022-11-22T13:11:37.140Z,9.74
2022-11-22T13:14:08.831Z,10.73
2022-11-22T13:16:40.267Z,10.23
2022-11-22T13:19:14.592Z,9.47
2022-11-22T13:21:55.004Z,8.93
2022-11-22T13:24:33.234Z,8.88
2022-11-22T13:27:10.718Z,10.09
2022-11-22T13:29:41.769Z,11.04
2022-11-22T13:32:20.605Z,11.05
2022-11-22T13:35:06.090Z,10.85
2022-11-22T13:37:39.412Z,10.69
2022-11-22T13:40:08.981Z,10.50
2022-11-22T13:42:39.820Z,10.10
2022-11-22T13:45:21.688Z,9.60
2022-11-22T13:47:52.658Z,9.06
2022-11-22T13:50:40.494Z,8.70
2022-11-22T13:53:22.943Z,9.56
2022-11-22T13:55:53.568Z,10.90
2022-11-22T13:58:54.696Z,11.39
2022-11-22T14:01:39.098Z,10.25
2022-11-22T14:04:21.285Z,9.27
2022-11-22T14:06:52.472Z,8.96
2022-11-22T14:09:37.180Z,9.99
2022-11-22T14:12:21.238Z,10.97
2022-11-22T14:15:02.562Z,11.15
2022-11-22T14:17:41.858Z,10.13
2022-11-22T14:20:24.317Z,9.05
2022-11-22T14:22:57.191Z,8.87
2022-11-22T14:25:39.485Z,10.01
2022-11-22T14:28:14.732Z,10.59
2022-11-22T14:30:47.930Z,9.99
2022-11-22T14:33:19.075Z,9.01
2022-11-22T14:36:07.208Z,8.39
2022-11-22T14:38:39.113Z,9.31
2022-11-22T14:41:26.925Z,10.29
2022-11-22T14:44:01.129Z,10.08
2022-11-22T14:46:52.828Z,8.95
2022-11-22T14:49:30.846Z,8.32
2022-11-22T14:52:01.575Z,9.33
2022-11-22T14:54:40.497Z,10.14
2022-11-22T14:57:14.751Z,10.21
2022-11-22T15:00:03.014Z,9.27
2022-11-22T15:02:50.916Z,8.34
2022-11-22T15:09:20.684Z,8.81
2022-11-22T15:09:22.732Z,10.04
2022-11-22T15:11:27.300Z,10.77
2022-11-22T15:14:30.187Z,10.47
2022-11-22T15:57:34.634Z,10.50
2022-11-22T16:00:10.743Z,9.81
2022-11-22T16:02:49.290Z,8.55
2022-11-22T16:06:06.187Z,7.82
2022-11-22T16:08:18.858Z,8.91
2022-11-22T16:10:51.236Z,9.91
2022-11-22T16:13:28.704Z,10.33
2022-11-22T16:16:07.171Z,9.16
2022-11-22T16:18:38.297Z,7.92
2022-11-22T16:21:20.386Z,7.56
2022-11-22T16:24:08.821Z,8.68
2022-11-22T16:26:40.227Z,9.70
2022-11-22T16:29:20.625Z,10.25
2022-11-22T16:31:50.905Z,10.28
2022-11-22T16:34:21.694Z,9.09
2022-11-22T16:36:52.267Z,8.06
2022-11-22T16:39:24.183Z,8.57
2022-11-22T16:41:54.547Z,9.48
2022-11-22T16:44:26.569Z,10.06
2022-11-22T16:46:58.910Z,10.51
2022-11-22T16:49:33.523Z,10.07
2022-11-22T16:52:04.466Z,8.92
2022-11-22T16:54:35.553Z,7.91
2022-11-22T16:57:07.313Z,7.54
2022-11-22T16:59:38.389Z,8.48
2022-11-22T17:02:10.736Z,9.26
2022-11-22T17:04:41.925Z,9.83
2022-11-22T17:07:12.663Z,10.09
2022-11-22T17:09:43.631Z,9.19
2022-11-22T17:12:14.509Z,8.02
2022-11-22T17:14:48.839Z,7.98
2022-11-22T17:17:19.312Z,9.01
2022-11-22T17:19:53.268Z,9.72
2022-11-22T17:22:24.369Z,9.82
2022-11-22T17:24:55.420Z,8.75
2022-11-22T17:27:25.728Z,7.86
2022-11-22T17:29:56.720Z,8.43
2022-11-22T17:32:27.397Z,9.41
2022-11-22T17:34:58.243Z,9.93
2022-11-22T17:37:29.796Z,9.59
2022-11-22T17:40:00.826Z,8.33
2022-11-22T17:42:31.129Z,7.45
2022-11-22T17:45:01.835Z,8.03
2022-11-22T17:47:32.825Z,8.83
2022-11-22T17:50:03.567Z,9.33
2022-11-22T17:52:33.986Z,8.80
2022-11-22T17:55:06.878Z,7.60
2022-11-22T17:57:40.744Z,7.42
2022-11-22T18:00:12.188Z,8.31
2022-11-22T18:02:42.637Z,8.94
2022-11-22T18:05:13.894Z,9.40
2022-11-22T18:07:44.378Z,9.31
2022-11-22T18:10:15.262Z,8.11
2022-11-22T18:12:58.599Z,7.22
2022-11-22T18:15:36.577Z,7.81
2022-11-22T18:18:07.246Z,8.45
2022-11-22T18:20:38.102Z,8.96
2022-11-22T18:23:08.788Z,9.17
2022-11-22T18:25:39.422Z,7.85
2022-11-22T18:28:10.165Z,6.75
2022-11-22T18:30:42.358Z,6.90
2022-11-22T18:33:13.163Z,7.92
2022-11-22T18:35:55.959Z,8.65
2022-11-22T18:38:26.923Z,9.02
2022-11-22T18:40:59.556Z,8.58
2022-11-22T18:43:29.930Z,7.26
2022-11-22T18:46:04.072Z,6.50
2022-11-22T18:48:36.723Z,7.36
2022-11-22T18:51:09.196Z,8.20
2022-11-22T18:53:40.792Z,8.56
2022-11-22T18:56:12.329Z,8.73
2022-11-22T18:58:42.618Z,8.96
2022-11-22T19:01:14.136Z,7.87
2022-11-22T19:03:45.627Z,6.85
2022-11-22T19:06:16.960Z,7.23
2022-11-22T19:08:48.446Z,8.09
2022-11-22T19:11:19.417Z,8.59
2022-11-22T19:13:49.788Z,8.59
2022-11-22T19:16:22.804Z,7.61
2022-11-22T19:18:53.093Z,6.61
2022-11-22T19:21:24.737Z,7.17
2022-11-22T19:23:55.663Z,8.01
2022-11-22T19:26:28.007Z,8.39
2022-11-22T19:29:02.555Z,8.22
2022-11-22T19:31:37.115Z,8.43
2022-11-22T19:34:07.653Z,8.02
2022-11-22T19:36:40.824Z,6.82
2022-11-22T19:39:13.588Z,6.53
2022-11-22T19:41:45.454Z,7.24
2022-11-22T19:44:15.877Z,8.10
2022-11-22T19:46:46.923Z,8.38
2022-11-22T19:49:17.905Z,8.61
2022-11-22T19:51:48.902Z,7.20
2022-11-22T19:54:19.258Z,6.42
2022-11-22T19:56:49.869Z,6.87
2022-11-22T19:59:20.579Z,7.68
2022-11-22T20:01:51.418Z,7.90
2022-11-22T20:04:21.856Z,8.13
2022-11-22T20:06:52.681Z,8.43
2022-11-22T20:09:23.787Z,8.52
2022-11-22T20:11:54.704Z,7.18
2022-11-22T20:14:25.189Z,6.05
2022-11-22T20:16:55.926Z,5.65
2022-11-22T20:19:31.137Z,6.62
2022-11-22T20:22:04.620Z,7.53
2022-11-22T20:24:35.099Z,8.05
2022-11-22T20:27:06.003Z,8.42
2022-11-22T20:29:36.647Z,8.20
2022-11-22T20:32:07.462Z,7.14
2022-11-22T20:34:37.813Z,5.97
2022-11-22T20:37:09.134Z,5.60
2022-11-22T20:39:39.444Z,6.32
2022-11-22T20:42:33.728Z,6.90
2022-11-22T20:45:00.607Z,7.50
2022-11-22T20:47:31.579Z,7.80
2022-11-22T20:50:02.071Z,8.38
2022-11-22T20:52:32.704Z,8.34
2022-11-22T20:55:05.266Z,6.87
2022-11-22T20:57:36.222Z,6.33
2022-11-22T21:00:08.012Z,7.06
2022-11-22T21:02:38.793Z,7.78
2022-11-22T21:05:12.433Z,8.14
2022-11-22T21:07:42.986Z,8.28
2022-11-22T21:10:13.471Z,8.27
2022-11-22T21:12:44.124Z,7.01
2022-11-22T21:15:15.446Z,5.84
2022-11-22T21:18:09.596Z,5.28
2022-11-22T21:20:37.281Z,6.24
2022-11-22T21:23:08.341Z,7.20
2022-11-22T21:25:38.759Z,7.82
2022-11-22T21:28:09.419Z,8.11
2022-11-22T21:30:39.815Z,8.46
2022-11-22T21:33:11.265Z,8.57
2022-11-22T21:35:45.715Z,7.52
2022-11-22T21:38:16.731Z,6.07
2022-11-22T21:40:58.384Z,5.89
2022-11-22T21:43:36.639Z,6.97
2022-11-22T21:46:07.460Z,7.65
2022-11-22T21:48:37.933Z,8.14
2022-11-22T21:51:08.729Z,8.54
2022-11-22T21:53:39.616Z,7.72
2022-11-22T21:56:10.425Z,6.39
2022-11-22T21:58:40.944Z,5.67
2022-11-22T22:01:14.255Z,6.52
2022-11-22T22:03:45.207Z,7.54
2022-11-22T22:06:15.580Z,8.19
2022-11-22T22:08:46.729Z,8.11
2022-11-22T22:11:17.055Z,6.99
2022-11-22T22:13:47.486Z,5.85
2022-11-22T22:16:23.058Z,5.30
2022-11-22T22:18:54.309Z,6.17
2022-11-22T22:21:24.687Z,7.17
2022-11-22T22:23:55.436Z,7.90
2022-11-22T22:26:25.992Z,8.42
2022-11-22T22:28:57.350Z,7.78
2022-11-22T22:31:27.767Z,6.38
2022-11-22T22:33:59.129Z,5.65
2022-11-22T22:36:29.607Z,6.41
2022-11-22T22:39:00.434Z,7.39
2022-11-22T22:41:31.436Z,7.90
2022-11-22T22:44:02.219Z,8.25
2022-11-22T22:46:32.736Z,7.79
2022-11-22T22:49:03.337Z,6.58
2022-11-22T22:51:33.897Z,5.57
2022-11-22T22:54:04.880Z,5.12
2022-11-22T22:56:35.168Z,5.98
2022-11-22T22:59:08.142Z,6.79
2022-11-22T23:01:38.510Z,7.54
2022-11-22T23:04:09.203Z,7.91
2022-11-22T23:06:40.275Z,8.19
2022-11-22T23:09:11.943Z,8.53
2022-11-22T23:12:00.041Z,8.43
2022-11-22T23:14:30.912Z,7.06
2022-11-22T23:17:01.198Z,5.96
2022-11-22T23:19:32.150Z,5.41
2022-11-22T23:22:02.868Z,6.21
2022-11-22T23:24:34.393Z,7.06
2022-11-22T23:27:04.901Z,7.62
2022-11-22T23:29:36.206Z,8.14
2022-11-22T23:32:07.360Z,8.21
2022-11-22T23:34:38.342Z,6.94
2022-11-22T23:37:08.605Z,5.74
2022-11-22T23:39:39.965Z,5.22
2022-11-22T23:42:11.186Z,6.14
2022-11-22T23:44:41.929Z,7.15
2022-11-22T23:47:12.264Z,7.77
2022-11-22T23:49:42.813Z,8.28
2022-11-22T23:52:13.210Z,8.15
2022-11-22T23:54:43.975Z,6.96
2022-11-22T23:57:14.253Z,5.79
2022-11-22T23:59:45.397Z,5.20
